Archival Weather

Abadan

Abadan, Iran (OIAA)

Report from: Wednesday, December 6, 2023 11:00 PM UTC
Current time: Sunday, February 25, 2024 10:48 PM UTC

Current weather – Weather history – Daily summaries
Weather forecast

Temperature14.0°C (57.2°F)
Dew point8.0°C (46.4°F)
Winds 4 kts (2.1 m/s, 4.6 mph) South (170°)
Visibility4.3 mi. (7 km)
Altimeter30.00 in.Hg (1016 mB)
Relative humidity67 %
Density altitude-58 ft. (-18 m)
Flight conditions Marginal Visual Meteorological Conditions
Raw dataOIAA 062300Z 17004KT 7000 NSC 14/08 Q1016
An error has occurred. This application may no longer respond until reloaded. Reload 🗙